map of EGS home
EGS - Airport
Location
City:  Egilsstašir, Iceland
Near (Alt.):Egilsstadir
ICAO:BIEG
IATA:EGS

Details
Type:Airport (Aerodrome, Airfield)
Latitude:65°17'00"N (65.283333)
Longitude:14°24'05"W (-14.401388)
Elevation:76 ft (23 m)
Variation:9.90°W (WMM2015 magnetic declination)
0.26° annual change
Runways:1
Longest:6562 × 148 ft (2000 × 45 m), paved

Time
Time Zone:UTC+0
Local Time:

Weather
METAR:BIEG 160300Z 20006KT 9999 VCSH FEW029 SCT034 BKN061 05/02 Q0990
TAF:BIEG 160100Z 1603/1703 20007KT 9999 RA BKN020 OVC030 TX08/1612Z TN04/1703Z
BECMG 1606/1609 14020G30KT
BECMG 1613/1615 02005KT
BECMG 1618/1621 25012KT
BECMG 1621/1623 NSW SCT050

Related Locations
Nearby:
Farthest:NZTB: 11777 mi / 18954 km
Terra Nova Bay [Mario Zucchelli Station], AQ

Find:

   beyond  
but within

Other Information
Maps:
NOTAMs:
Links:
Sources:

  
  • flag of Iceland
  

Airport Diagram

Airport diagram for EGS

Larger airport diagram (OBSOLETE) from NGA

Sectional Chart

Flight Planning
at skyvector.com

Satellite Image

Google Maps Satellite view

 

Copyright © 2004-2018 Karl L. Swartz. All rights reserved.
The Great Circle Mapper name and logo are trademarks of the Great Circle Mapper.
All other trademarks mentioned herein belong to their respective owners.
Please see credits for attibutions and further copyright information.

  Follow gcmap on Facebook Follow gcmap on Twitter Follow gcmap on Google+ GCmap on LinkedIn

hCard Microformat

Geo Microformat